Whisper — ZCIV7 — position and weather

sailwx.info

Track history (hours):
 
Tides and Currents Weather Stations Pressure Air Temp Water Temp Dewpoint Dewpoint Depression Visibility Wind Speed Wind Dir Waves Ship Positions

Whisper

Last reported at 2014-Aug-29 15:04 UTC. Time now 2014-Aug-29 16:22 UTC.
Position N 41°29' W 071°19'.

Length 37 m; draft 3 m.

Type: Sailing vessel. MMSI: 319911000.

Date/timePositionNaut miles runAvg speedWind from/ knotsBaromVisibWave heightAir tempDewpointWater temp
2014-Aug-29 15:04N 41°29' W 071°19'0 0.0
2014-Aug-29 14:32N 41°29' W 071°19'0 0.0
2014-Aug-29 13:08N 41°29' W 071°19'0 0.0
2014-Aug-29 12:30N 41°29' W 071°19'0 0.0
2014-Aug-29 11:33N 41°29' W 071°19'0 0.0
2014-Aug-29 10:30N 41°29' W 071°19'0 0.0
2014-Aug-29 09:33N 41°29' W 071°19'0 0.0
2014-Aug-29 08:33N 41°29' W 071°19'0 0.0
2014-Aug-29 07:33N 41°29' W 071°19'0 0.0
2014-Aug-29 06:33N 41°29' W 071°19'0 0.0
2014-Aug-29 05:34N 41°29' W 071°19'0 0.0
2014-Aug-29 04:33N 41°29' W 071°19'0 0.0
2014-Aug-29 03:34N 41°29' W 071°19'0 0.0
2014-Aug-29 02:33N 41°29' W 071°19'0 0.0
2014-Aug-29 01:34N 41°29' W 071°19'0 0.0
2014-Aug-29 00:33N 41°29' W 071°19'0 0.0
2014-Aug-28 23:33N 41°29' W 071°19'0 0.0
2014-Aug-28 22:28N 41°29' W 071°19'0 0.0
2014-Aug-28 21:32N 41°29' W 071°19'0 0.0
2014-Aug-28 20:24N 41°29' W 071°19'0 0.0
2014-Aug-28 18:24N 41°29' W 071°19'6 7.6
2014-Aug-28 17:34N 41°25' W 071°25'9 9.4
2014-Aug-28 16:34N 41°20' W 071°36'10 9.7
2014-Aug-28 15:34N 41°18' W 071°49'5 5.0
2014-Aug-28 14:34N 41°20' W 071°55'5 5.2
2014-Aug-28 13:34N 41°15' W 071°52'10 9.7
2014-Aug-28 12:34N 41°13' W 071°39'4 3.7
2014-Aug-28 11:34N 41°11' W 071°35'0 0.0
2014-Aug-28 10:34N 41°11' W 071°35'0 0.0
2014-Aug-28 09:33N 41°11' W 071°35'0 0.0
2014-Aug-28 08:33N 41°11' W 071°35'0 0.0
2014-Aug-28 07:34N 41°11' W 071°35'0 0.0
2014-Aug-28 06:34N 41°11' W 071°35'0 0.0
2014-Aug-28 05:34N 41°11' W 071°35'0 0.0
2014-Aug-28 04:34N 41°11' W 071°35'0 0.0
2014-Aug-28 03:34N 41°11' W 071°35'0 0.0
2014-Aug-28 02:33N 41°11' W 071°35'0 0.0
2014-Aug-28 01:34N 41°12' W 071°35'0 0.0
2014-Aug-28 00:33N 41°11' W 071°35'0 0.0
2014-Aug-27 23:34N 41°11' W 071°35'0 0.0
2014-Aug-27 22:34N 41°11' W 071°35'0 0.0
2014-Aug-27 21:34N 41°11' W 071°35'0 0.0
2014-Aug-27 20:34N 41°11' W 071°35'0 0.0
2014-Aug-27 19:33N 41°11' W 071°35'1 0.7
2014-Aug-27 18:34N 41°12' W 071°35'9 9.0
2014-Aug-27 17:34N 41°15' W 071°47'6 6.3
2014-Aug-27 16:34N 41°18' W 071°54'2 1.7
2014-Aug-27 15:34N 41°20' W 071°55'0 0.0
2014-Aug-27 14:34N 41°20' W 071°55'0 0.0
2014-Aug-27 13:34N 41°20' W 071°55'0 0.0
2014-Aug-27 12:33N 41°20' W 071°55'0 0.0
2014-Aug-27 11:34N 41°20' W 071°55'0 0.0
2014-Aug-27 10:34N 41°20' W 071°55'0 0.0
2014-Aug-27 09:34N 41°20' W 071°55'0 0.0
2014-Aug-27 08:34N 41°20' W 071°55'0 0.0
2014-Aug-27 07:33N 41°20' W 071°55'0 0.0
2014-Aug-27 06:33N 41°20' W 071°55'0 0.0
2014-Aug-27 05:33N 41°20' W 071°55'0 0.0
2014-Aug-27 04:33N 41°20' W 071°55'0 0.0
2014-Aug-27 03:33N 41°20' W 071°55'0 0.0
2014-Aug-27 02:33N 41°20' W 071°55'0 0.0
2014-Aug-27 01:33N 41°20' W 071°55'0 0.0
2014-Aug-27 00:33N 41°20' W 071°55'0 0.0
2014-Aug-26 23:33N 41°20' W 071°55'0 0.0
2014-Aug-26 22:34N 41°20' W 071°55'0 0.0
2014-Aug-26 21:34N 41°20' W 071°55'0 0.0
2014-Aug-26 20:34N 41°20' W 071°55'0 0.0
2014-Aug-26 19:33N 41°20' W 071°55'1 1.3
2014-Aug-26 18:34N 41°19' W 071°55'4 4.2
2014-Aug-26 17:34N 41°18' W 071°49'4 4.4
2014-Aug-26 16:34N 41°19' W 071°55'1 0.6
2014-Aug-26 15:34N 41°20' W 071°55'0 0.0
2014-Aug-26 14:34N 41°20' W 071°55'0 0.0
2014-Aug-26 13:34N 41°20' W 071°55'0 0.0
2014-Aug-26 12:34N 41°20' W 071°55'0 0.0
2014-Aug-26 11:33N 41°20' W 071°55'0 0.0
2014-Aug-26 10:33N 41°20' W 071°55'0 0.0
2014-Aug-26 09:34N 41°20' W 071°55'0 0.0
2014-Aug-26 08:34N 41°20' W 071°55'0 0.0
2014-Aug-26 07:34N 41°20' W 071°55'0 0.0
2014-Aug-26 06:34N 41°20' W 071°55'0 0.0
2014-Aug-26 05:34N 41°20' W 071°55'0 0.0
2014-Aug-26 04:34N 41°20' W 071°55'0 0.0
2014-Aug-26 03:34N 41°20' W 071°55'0 0.0
2014-Aug-26 02:34N 41°20' W 071°55'0 0.0
2014-Aug-26 01:34N 41°20' W 071°55'0 0.0
2014-Aug-26 00:34N 41°20' W 071°55'0 0.0
2014-Aug-25 23:34N 41°20' W 071°55'0 0.0
2014-Aug-25 22:34N 41°20' W 071°55'0 0.0
2014-Aug-25 21:33N 41°20' W 071°55'0 0.0
2014-Aug-25 20:33N 41°20' W 071°55'0 0.0
2014-Aug-25 19:34N 41°20' W 071°55'0 0.0
2014-Aug-25 18:34N 41°20' W 071°55'0 0.0
2014-Aug-25 17:34N 41°20' W 071°55'0 0.0
2014-Aug-25 16:34N 41°20' W 071°55'0 0.0
2014-Aug-25 15:34N 41°20' W 071°55'0 0.0
2014-Aug-25 14:34N 41°20' W 071°55'0 0.0
2014-Aug-25 13:34N 41°20' W 071°55'0 0.0
2014-Aug-25 12:33N 41°20' W 071°55'0 0.0
2014-Aug-25 11:34N 41°20' W 071°55'0 0.0
2014-Aug-25 10:33N 41°20' W 071°55'0 0.0
2014-Aug-25 09:34N 41°20' W 071°55'0 0.0
2014-Aug-25 08:34N 41°20' W 071°55'0 0.0
2014-Aug-25 07:34N 41°20' W 071°55'0 0.0
2014-Aug-25 06:34N 41°20' W 071°55'0 0.0
2014-Aug-25 05:33N 41°20' W 071°55'0 0.0
2014-Aug-25 04:34N 41°20' W 071°55'0 0.0
2014-Aug-25 03:34N 41°20' W 071°55'0 0.0
2014-Aug-25 02:34N 41°20' W 071°55'0 0.0
2014-Aug-25 01:34N 41°20' W 071°55'0 0.0
2014-Aug-25 00:33N 41°20' W 071°55'0 0.0
2014-Aug-24 23:34N 41°20' W 071°55'0 0.0
2014-Aug-24 22:34N 41°20' W 071°55'0 0.0
2014-Aug-24 21:34N 41°20' W 071°55'0 0.0
2014-Aug-24 20:34N 41°20' W 071°55'3 2.8
2014-Aug-24 19:34N 41°17' W 071°54'4 4.2
2014-Aug-24 18:34N 41°13' W 071°56'1 1.2
2014-Aug-24 17:34N 41°14' W 071°57'5 4.7
2014-Aug-24 16:34N 41°18' W 071°54'2 1.9
2014-Aug-24 15:33N 41°20' W 071°55'0 0.0
2014-Aug-24 14:34N 41°20' W 071°55'0 0.0
2014-Aug-24 13:34N 41°20' W 071°55'0 0.0
2014-Aug-24 12:34N 41°20' W 071°55'0 0.0
2014-Aug-24 11:34N 41°20' W 071°55'0 0.0
2014-Aug-24 10:34N 41°20' W 071°55'0 0.0
2014-Aug-24 09:34N 41°20' W 071°55'0 0.0
2014-Aug-24 08:34N 41°20' W 071°55'0 0.0
2014-Aug-24 07:34N 41°20' W 071°55'0 0.0
2014-Aug-24 06:34N 41°20' W 071°55'0 0.0
2014-Aug-24 05:34N 41°20' W 071°55'0 0.0
2014-Aug-24 04:34N 41°20' W 071°55'0 0.0
2014-Aug-24 03:33N 41°20' W 071°55'0 0.0
2014-Aug-24 02:34N 41°20' W 071°55'0 0.0
2014-Aug-24 01:33N 41°20' W 071°55'0 0.0
2014-Aug-24 00:34N 41°20' W 071°55'0 0.0
2014-Aug-23 23:34N 41°20' W 071°55'0 0.0
2014-Aug-23 22:34N 41°20' W 071°55'0 0.0
2014-Aug-23 21:34N 41°20' W 071°55'0 0.0
2014-Aug-23 20:34N 41°20' W 071°55'1 1.5
2014-Aug-23 19:34N 41°18' W 071°54'28 1.8
2014-Aug-23 03:30N 41°29' W 071°19'0 0.0
2014-Aug-23 02:32N 41°29' W 071°19'0 0.0
2014-Aug-23 00:04N 41°29' W 071°19'0 0.0
2014-Aug-22 23:31N 41°29' W 071°19'0 0.0
2014-Aug-22 22:32N 41°29' W 071°19'0 0.0
2014-Aug-22 20:20N 41°29' W 071°19'0 0.0
2014-Aug-22 19:31N 41°29' W 071°19'0 0.0
2014-Aug-22 18:31N 41°29' W 071°19'0 0.0
2014-Aug-22 17:26N 41°29' W 071°19'0 0.0
2014-Aug-22 16:31N 41°29' W 071°19'0 0.0
2014-Aug-22 15:22N 41°29' W 071°19'0 0.0
2014-Aug-22 14:33N 41°29' W 071°19'0 0.0
2014-Aug-22 13:33N 41°29' W 071°19'0 0.0
2014-Aug-22 12:34N 41°29' W 071°19'0 0.0
2014-Aug-22 11:33N 41°29' W 071°19'0 0.0
2014-Aug-22 10:34N 41°29' W 071°19'0 0.0
2014-Aug-22 09:33N 41°29' W 071°19'0 0.0
2014-Aug-22 08:34N 41°29' W 071°19'0 0.0
2014-Aug-22 07:33N 41°29' W 071°19'0 0.0
2014-Aug-22 06:33N 41°29' W 071°19'0 0.0
2014-Aug-22 05:34N 41°29' W 071°19'0 0.0
2014-Aug-22 04:33N 41°29' W 071°19'0 0.0
2014-Aug-22 03:32N 41°29' W 071°19'0 0.0
2014-Aug-22 02:34N 41°29' W 071°19'0 0.0
2014-Aug-22 01:34N 41°29' W 071°19'0 0.0
2014-Aug-22 00:34N 41°29' W 071°19'0 0.0
2014-Aug-21 23:33N 41°29' W 071°19'0 0.0
2014-Aug-21 22:33N 41°29' W 071°19'0 0.0
2014-Aug-21 21:31N 41°29' W 071°19'0 0.0
2014-Aug-21 20:28N 41°29' W 071°19'0 0.0
2014-Aug-21 19:26N 41°29' W 071°19'0 0.0
2014-Aug-21 17:33N 41°29' W 071°19'0 0.0
2014-Aug-21 16:33N 41°29' W 071°19'0 0.0
2014-Aug-21 15:33N 41°29' W 071°19'0 0.0
2014-Aug-21 14:25N 41°29' W 071°19'0 0.0
2014-Aug-21 13:26N 41°29' W 071°19'0 0.0
2014-Aug-21 12:22N 41°29' W 071°19'0 0.0
2014-Aug-21 11:34N 41°29' W 071°19'0 0.0
2014-Aug-21 10:33N 41°29' W 071°19'0 0.0
2014-Aug-21 09:34N 41°29' W 071°19'0 0.0
2014-Aug-21 08:34N 41°29' W 071°19'0 0.0
2014-Aug-21 07:33N 41°29' W 071°19'0 0.0
2014-Aug-21 06:34N 41°29' W 071°19'0 0.0
2014-Aug-21 05:34N 41°29' W 071°19'0 0.0
2014-Aug-21 04:33N 41°29' W 071°19'0 0.0
2014-Aug-21 03:33N 41°29' W 071°19'0 0.0
2014-Aug-21 02:34N 41°29' W 071°19'0 0.0
2014-Aug-21 01:34N 41°29' W 071°19'0 0.0
2014-Aug-21 00:33N 41°29' W 071°19'0 0.0
2014-Aug-20 23:34N 41°29' W 071°19'0 0.0
2014-Aug-20 22:33N 41°29' W 071°19'0 0.0
2014-Aug-20 21:33N 41°29' W 071°19'0 0.0
2014-Aug-20 20:33N 41°29' W 071°19'0 0.0
2014-Aug-20 19:32N 41°29' W 071°19'0 0.0
2014-Aug-20 18:32N 41°29' W 071°19'0 0.0
2014-Aug-20 17:25N 41°29' W 071°19'2 2.4
2014-Aug-20 16:34N 41°31' W 071°20'1 1.4
2014-Aug-20 15:33N 41°33' W 071°20'3 3.3
2014-Aug-20 14:33N 41°29' W 071°19'0 0.0
2014-Aug-20 13:34N 41°29' W 071°19'0 0.0
2014-Aug-20 12:33N 41°29' W 071°19'0 0.0
2014-Aug-20 11:34N 41°29' W 071°19'0 0.0
2014-Aug-20 10:34N 41°29' W 071°19'0 0.0
2014-Aug-20 09:34N 41°29' W 071°19'0 0.0
2014-Aug-20 08:30N 41°29' W 071°19'0 0.0
2014-Aug-20 07:33N 41°29' W 071°19'0 0.0
2014-Aug-20 06:30N 41°29' W 071°19'0 0.0
2014-Aug-20 05:34N 41°29' W 071°19'0 0.0
2014-Aug-20 04:30N 41°29' W 071°19'0 0.0
2014-Aug-20 03:33N 41°29' W 071°19'0 0.0
2014-Aug-20 02:34N 41°29' W 071°19'0 0.0
2014-Aug-20 01:34N 41°29' W 071°19'0 0.0
2014-Aug-20 00:34N 41°29' W 071°19'0 0.0
2014-Aug-19 23:34N 41°29' W 071°19'0 0.0
2014-Aug-19 22:33N 41°29' W 071°19'0 0.0
2014-Aug-19 21:33N 41°29' W 071°19'0 0.0
2014-Aug-19 20:28N 41°29' W 071°19'0 0.0
2014-Aug-19 19:33N 41°29' W 071°19'0 0.0
2014-Aug-19 18:33N 41°29' W 071°19'  
Track history (hours):
 
Tides and Currents Weather Stations Pressure Air Temp Water Temp Dewpoint Dewpoint Depression Visibility Wind Speed Wind Dir Waves Ship Positions

Whisper

Last reported at 2014-Aug-29 15:04 UTC. Time now 2014-Aug-29 16:22 UTC.
Position N 41°29' W 071°19'.

Length 37 m; draft 3 m.

Type: Sailing vessel. MMSI: 319911000.

Date/timePositionNaut miles runAvg speedWind from/ knotsBaromVisibWave heightAir tempDewpointWater temp
2014-Aug-29 15:04N 41°29' W 071°19'0 0.0
2014-Aug-29 14:32N 41°29' W 071°19'0 0.0
2014-Aug-29 13:08N 41°29' W 071°19'0 0.0
2014-Aug-29 12:30N 41°29' W 071°19'0 0.0
2014-Aug-29 11:33N 41°29' W 071°19'0 0.0
2014-Aug-29 10:30N 41°29' W 071°19'0 0.0
2014-Aug-29 09:33N 41°29' W 071°19'0 0.0
2014-Aug-29 08:33N 41°29' W 071°19'0 0.0
2014-Aug-29 07:33N 41°29' W 071°19'0 0.0
2014-Aug-29 06:33N 41°29' W 071°19'0 0.0
2014-Aug-29 05:34N 41°29' W 071°19'0 0.0
2014-Aug-29 04:33N 41°29' W 071°19'0 0.0
2014-Aug-29 03:34N 41°29' W 071°19'0 0.0
2014-Aug-29 02:33N 41°29' W 071°19'0 0.0
2014-Aug-29 01:34N 41°29' W 071°19'0 0.0
2014-Aug-29 00:33N 41°29' W 071°19'0 0.0
2014-Aug-28 23:33N 41°29' W 071°19'0 0.0
2014-Aug-28 22:28N 41°29' W 071°19'0 0.0
2014-Aug-28 21:32N 41°29' W 071°19'0 0.0
2014-Aug-28 20:24N 41°29' W 071°19'0 0.0
2014-Aug-28 18:24N 41°29' W 071°19'6 7.6
2014-Aug-28 17:34N 41°25' W 071°25'9 9.4
2014-Aug-28 16:34N 41°20' W 071°36'10 9.7
2014-Aug-28 15:34N 41°18' W 071°49'5 5.0
2014-Aug-28 14:34N 41°20' W 071°55'5 5.2
2014-Aug-28 13:34N 41°15' W 071°52'10 9.7
2014-Aug-28 12:34N 41°13' W 071°39'4 3.7
2014-Aug-28 11:34N 41°11' W 071°35'0 0.0
2014-Aug-28 10:34N 41°11' W 071°35'0 0.0
2014-Aug-28 09:33N 41°11' W 071°35'0 0.0
2014-Aug-28 08:33N 41°11' W 071°35'0 0.0
2014-Aug-28 07:34N 41°11' W 071°35'0 0.0
2014-Aug-28 06:34N 41°11' W 071°35'0 0.0
2014-Aug-28 05:34N 41°11' W 071°35'0 0.0
2014-Aug-28 04:34N 41°11' W 071°35'0 0.0
2014-Aug-28 03:34N 41°11' W 071°35'0 0.0
2014-Aug-28 02:33N 41°11' W 071°35'0 0.0
2014-Aug-28 01:34N 41°12' W 071°35'0 0.0
2014-Aug-28 00:33N 41°11' W 071°35'0 0.0
2014-Aug-27 23:34N 41°11' W 071°35'0 0.0
2014-Aug-27 22:34N 41°11' W 071°35'0 0.0
2014-Aug-27 21:34N 41°11' W 071°35'0 0.0
2014-Aug-27 20:34N 41°11' W 071°35'0 0.0
2014-Aug-27 19:33N 41°11' W 071°35'1 0.7
2014-Aug-27 18:34N 41°12' W 071°35'9 9.0
2014-Aug-27 17:34N 41°15' W 071°47'6 6.3
2014-Aug-27 16:34N 41°18' W 071°54'2 1.7
2014-Aug-27 15:34N 41°20' W 071°55'0 0.0
2014-Aug-27 14:34N 41°20' W 071°55'0 0.0
2014-Aug-27 13:34N 41°20' W 071°55'0 0.0
2014-Aug-27 12:33N 41°20' W 071°55'0 0.0
2014-Aug-27 11:34N 41°20' W 071°55'0 0.0
2014-Aug-27 10:34N 41°20' W 071°55'0 0.0
2014-Aug-27 09:34N 41°20' W 071°55'0 0.0
2014-Aug-27 08:34N 41°20' W 071°55'0 0.0
2014-Aug-27 07:33N 41°20' W 071°55'0 0.0
2014-Aug-27 06:33N 41°20' W 071°55'0 0.0
2014-Aug-27 05:33N 41°20' W 071°55'0 0.0
2014-Aug-27 04:33N 41°20' W 071°55'0 0.0
2014-Aug-27 03:33N 41°20' W 071°55'0 0.0
2014-Aug-27 02:33N 41°20' W 071°55'0 0.0
2014-Aug-27 01:33N 41°20' W 071°55'0 0.0
2014-Aug-27 00:33N 41°20' W 071°55'0 0.0
2014-Aug-26 23:33N 41°20' W 071°55'0 0.0
2014-Aug-26 22:34N 41°20' W 071°55'0 0.0
2014-Aug-26 21:34N 41°20' W 071°55'0 0.0
2014-Aug-26 20:34N 41°20' W 071°55'0 0.0
2014-Aug-26 19:33N 41°20' W 071°55'1 1.3
2014-Aug-26 18:34N 41°19' W 071°55'4 4.2
2014-Aug-26 17:34N 41°18' W 071°49'4 4.4
2014-Aug-26 16:34N 41°19' W 071°55'1 0.6
2014-Aug-26 15:34N 41°20' W 071°55'0 0.0
2014-Aug-26 14:34N 41°20' W 071°55'0 0.0
2014-Aug-26 13:34N 41°20' W 071°55'0 0.0
2014-Aug-26 12:34N 41°20' W 071°55'0 0.0
2014-Aug-26 11:33N 41°20' W 071°55'0 0.0
2014-Aug-26 10:33N 41°20' W 071°55'0 0.0
2014-Aug-26 09:34N 41°20' W 071°55'0 0.0
2014-Aug-26 08:34N 41°20' W 071°55'0 0.0
2014-Aug-26 07:34N 41°20' W 071°55'0 0.0
2014-Aug-26 06:34N 41°20' W 071°55'0 0.0
2014-Aug-26 05:34N 41°20' W 071°55'0 0.0
2014-Aug-26 04:34N 41°20' W 071°55'0 0.0
2014-Aug-26 03:34N 41°20' W 071°55'0 0.0
2014-Aug-26 02:34N 41°20' W 071°55'0 0.0
2014-Aug-26 01:34N 41°20' W 071°55'0 0.0
2014-Aug-26 00:34N 41°20' W 071°55'0 0.0
2014-Aug-25 23:34N 41°20' W 071°55'0 0.0
2014-Aug-25 22:34N 41°20' W 071°55'0 0.0
2014-Aug-25 21:33N 41°20' W 071°55'0 0.0
2014-Aug-25 20:33N 41°20' W 071°55'0 0.0
2014-Aug-25 19:34N 41°20' W 071°55'0 0.0
2014-Aug-25 18:34N 41°20' W 071°55'0 0.0
2014-Aug-25 17:34N 41°20' W 071°55'0 0.0
2014-Aug-25 16:34N 41°20' W 071°55'0 0.0
2014-Aug-25 15:34N 41°20' W 071°55'0 0.0
2014-Aug-25 14:34N 41°20' W 071°55'0 0.0
2014-Aug-25 13:34N 41°20' W 071°55'0 0.0
2014-Aug-25 12:33N 41°20' W 071°55'0 0.0
2014-Aug-25 11:34N 41°20' W 071°55'0 0.0
2014-Aug-25 10:33N 41°20' W 071°55'0 0.0
2014-Aug-25 09:34N 41°20' W 071°55'0 0.0
2014-Aug-25 08:34N 41°20' W 071°55'0 0.0
2014-Aug-25 07:34N 41°20' W 071°55'0 0.0
2014-Aug-25 06:34N 41°20' W 071°55'0 0.0
2014-Aug-25 05:33N 41°20' W 071°55'0 0.0
2014-Aug-25 04:34N 41°20' W 071°55'0 0.0
2014-Aug-25 03:34N 41°20' W 071°55'0 0.0
2014-Aug-25 02:34N 41°20' W 071°55'0 0.0
2014-Aug-25 01:34N 41°20' W 071°55'0 0.0
2014-Aug-25 00:33N 41°20' W 071°55'0 0.0
2014-Aug-24 23:34N 41°20' W 071°55'0 0.0
2014-Aug-24 22:34N 41°20' W 071°55'0 0.0
2014-Aug-24 21:34N 41°20' W 071°55'0 0.0
2014-Aug-24 20:34N 41°20' W 071°55'3 2.8
2014-Aug-24 19:34N 41°17' W 071°54'4 4.2
2014-Aug-24 18:34N 41°13' W 071°56'1 1.2
2014-Aug-24 17:34N 41°14' W 071°57'5 4.7
2014-Aug-24 16:34N 41°18' W 071°54'2 1.9
2014-Aug-24 15:33N 41°20' W 071°55'0 0.0
2014-Aug-24 14:34N 41°20' W 071°55'0 0.0
2014-Aug-24 13:34N 41°20' W 071°55'0 0.0
2014-Aug-24 12:34N 41°20' W 071°55'0 0.0
2014-Aug-24 11:34N 41°20' W 071°55'0 0.0
2014-Aug-24 10:34N 41°20' W 071°55'0 0.0
2014-Aug-24 09:34N 41°20' W 071°55'0 0.0
2014-Aug-24 08:34N 41°20' W 071°55'0 0.0
2014-Aug-24 07:34N 41°20' W 071°55'0 0.0
2014-Aug-24 06:34N 41°20' W 071°55'0 0.0
2014-Aug-24 05:34N 41°20' W 071°55'0 0.0
2014-Aug-24 04:34N 41°20' W 071°55'0 0.0
2014-Aug-24 03:33N 41°20' W 071°55'0 0.0
2014-Aug-24 02:34N 41°20' W 071°55'0 0.0
2014-Aug-24 01:33N 41°20' W 071°55'0 0.0
2014-Aug-24 00:34N 41°20' W 071°55'0 0.0
2014-Aug-23 23:34N 41°20' W 071°55'0 0.0
2014-Aug-23 22:34N 41°20' W 071°55'0 0.0
2014-Aug-23 21:34N 41°20' W 071°55'0 0.0
2014-Aug-23 20:34N 41°20' W 071°55'1 1.5
2014-Aug-23 19:34N 41°18' W 071°54'28 1.8
2014-Aug-23 03:30N 41°29' W 071°19'0 0.0
2014-Aug-23 02:32N 41°29' W 071°19'0 0.0
2014-Aug-23 00:04N 41°29' W 071°19'0 0.0
2014-Aug-22 23:31N 41°29' W 071°19'0 0.0
2014-Aug-22 22:32N 41°29' W 071°19'0 0.0
2014-Aug-22 20:20N 41°29' W 071°19'0 0.0
2014-Aug-22 19:31N 41°29' W 071°19'0 0.0
2014-Aug-22 18:31N 41°29' W 071°19'0 0.0
2014-Aug-22 17:26N 41°29' W 071°19'0 0.0
2014-Aug-22 16:31N 41°29' W 071°19'0 0.0
2014-Aug-22 15:22N 41°29' W 071°19'0 0.0
2014-Aug-22 14:33N 41°29' W 071°19'0 0.0
2014-Aug-22 13:33N 41°29' W 071°19'0 0.0
2014-Aug-22 12:34N 41°29' W 071°19'0 0.0
2014-Aug-22 11:33N 41°29' W 071°19'0 0.0
2014-Aug-22 10:34N 41°29' W 071°19'0 0.0
2014-Aug-22 09:33N 41°29' W 071°19'0 0.0
2014-Aug-22 08:34N 41°29' W 071°19'0 0.0
2014-Aug-22 07:33N 41°29' W 071°19'0 0.0
2014-Aug-22 06:33N 41°29' W 071°19'0 0.0
2014-Aug-22 05:34N 41°29' W 071°19'0 0.0
2014-Aug-22 04:33N 41°29' W 071°19'0 0.0
2014-Aug-22 03:32N 41°29' W 071°19'0 0.0
2014-Aug-22 02:34N 41°29' W 071°19'0 0.0
2014-Aug-22 01:34N 41°29' W 071°19'0 0.0
2014-Aug-22 00:34N 41°29' W 071°19'0 0.0
2014-Aug-21 23:33N 41°29' W 071°19'0 0.0
2014-Aug-21 22:33N 41°29' W 071°19'0 0.0
2014-Aug-21 21:31N 41°29' W 071°19'0 0.0
2014-Aug-21 20:28N 41°29' W 071°19'0 0.0
2014-Aug-21 19:26N 41°29' W 071°19'0 0.0
2014-Aug-21 17:33N 41°29' W 071°19'0 0.0
2014-Aug-21 16:33N 41°29' W 071°19'0 0.0
2014-Aug-21 15:33N 41°29' W 071°19'0 0.0
2014-Aug-21 14:25N 41°29' W 071°19'0 0.0
2014-Aug-21 13:26N 41°29' W 071°19'0 0.0
2014-Aug-21 12:22N 41°29' W 071°19'0 0.0
2014-Aug-21 11:34N 41°29' W 071°19'0 0.0
2014-Aug-21 10:33N 41°29' W 071°19'0 0.0
2014-Aug-21 09:34N 41°29' W 071°19'0 0.0
2014-Aug-21 08:34N 41°29' W 071°19'0 0.0
2014-Aug-21 07:33N 41°29' W 071°19'0 0.0
2014-Aug-21 06:34N 41°29' W 071°19'0 0.0
2014-Aug-21 05:34N 41°29' W 071°19'0 0.0
2014-Aug-21 04:33N 41°29' W 071°19'0 0.0
2014-Aug-21 03:33N 41°29' W 071°19'0 0.0
2014-Aug-21 02:34N 41°29' W 071°19'0 0.0
2014-Aug-21 01:34N 41°29' W 071°19'0 0.0
2014-Aug-21 00:33N 41°29' W 071°19'0 0.0
2014-Aug-20 23:34N 41°29' W 071°19'0 0.0
2014-Aug-20 22:33N 41°29' W 071°19'0 0.0
2014-Aug-20 21:33N 41°29' W 071°19'0 0.0
2014-Aug-20 20:33N 41°29' W 071°19'0 0.0
2014-Aug-20 19:32N 41°29' W 071°19'0 0.0
2014-Aug-20 18:32N 41°29' W 071°19'0 0.0
2014-Aug-20 17:25N 41°29' W 071°19'2 2.4
2014-Aug-20 16:34N 41°31' W 071°20'1 1.4
2014-Aug-20 15:33N 41°33' W 071°20'3 3.3
2014-Aug-20 14:33N 41°29' W 071°19'0 0.0
2014-Aug-20 13:34N 41°29' W 071°19'0 0.0
2014-Aug-20 12:33N 41°29' W 071°19'0 0.0
2014-Aug-20 11:34N 41°29' W 071°19'0 0.0
2014-Aug-20 10:34N 41°29' W 071°19'0 0.0
2014-Aug-20 09:34N 41°29' W 071°19'0 0.0
2014-Aug-20 08:30N 41°29' W 071°19'0 0.0
2014-Aug-20 07:33N 41°29' W 071°19'0 0.0
2014-Aug-20 06:30N 41°29' W 071°19'0 0.0
2014-Aug-20 05:34N 41°29' W 071°19'0 0.0
2014-Aug-20 04:30N 41°29' W 071°19'0 0.0
2014-Aug-20 03:33N 41°29' W 071°19'0 0.0
2014-Aug-20 02:34N 41°29' W 071°19'0 0.0
2014-Aug-20 01:34N 41°29' W 071°19'0 0.0
2014-Aug-20 00:34N 41°29' W 071°19'0 0.0
2014-Aug-19 23:34N 41°29' W 071°19'0 0.0
2014-Aug-19 22:33N 41°29' W 071°19'0 0.0
2014-Aug-19 21:33N 41°29' W 071°19'0 0.0
2014-Aug-19 20:28N 41°29' W 071°19'0 0.0
2014-Aug-19 19:33N 41°29' W 071°19'0 0.0
2014-Aug-19 18:33N 41°29' W 071°19'  

Dump ship's entire track history